sensor_id;sensor_type;location;lat;lon;timestamp;pressure;altitude;pressure_sealevel;temperature;humidity
47330;BME280;33060;50.178;7.570;2022-07-06T00:01:51;97816.78;;;14.16;64.37
47330;BME280;33060;50.178;7.570;2022-07-06T00:04:18;97817.94;;;14.12;64.28
47330;BME280;33060;50.178;7.570;2022-07-06T00:06:45;97811.56;;;14.14;64.33
47330;BME280;33060;50.178;7.570;2022-07-06T00:09:12;97813.72;;;14.09;64.68
47330;BME280;33060;50.178;7.570;2022-07-06T00:11:39;97814.56;;;14.10;64.32
47330;BME280;33060;50.178;7.570;2022-07-06T00:14:05;97815.66;;;14.07;64.98
47330;BME280;33060;50.178;7.570;2022-07-06T00:16:32;97812.34;;;14.04;65.03
47330;BME280;33060;50.178;7.570;2022-07-06T00:19:00;97815.22;;;14.01;65.78
47330;BME280;33060;50.178;7.570;2022-07-06T00:21:26;97814.50;;;13.99;64.82
47330;BME280;33060;50.178;7.570;2022-07-06T00:23:53;97810.13;;;13.98;65.01
47330;BME280;33060;50.178;7.570;2022-07-06T00:26:20;97806.53;;;13.99;65.44
47330;BME280;33060;50.178;7.570;2022-07-06T00:28:46;97806.97;;;13.93;65.16
47330;BME280;33060;50.178;7.570;2022-07-06T00:31:13;97805.28;;;13.92;65.56
47330;BME280;33060;50.178;7.570;2022-07-06T00:33:40;97804.13;;;13.83;65.16
47330;BME280;33060;50.178;7.570;2022-07-06T00:36:07;97815.47;;;13.72;66.30
47330;BME280;33060;50.178;7.570;2022-07-06T00:38:33;97817.63;;;13.54;66.50
47330;BME280;33060;50.178;7.570;2022-07-06T00:41:02;97823.69;;;13.56;66.63
47330;BME280;33060;50.178;7.570;2022-07-06T00:43:46;97818.69;;;13.52;67.36
47330;BME280;33060;50.178;7.570;2022-07-06T00:46:14;97812.53;;;13.51;67.22
47330;BME280;33060;50.178;7.570;2022-07-06T00:48:40;97816.91;;;13.40;67.90
47330;BME280;33060;50.178;7.570;2022-07-06T00:51:08;97816.25;;;13.36;67.17
47330;BME280;33060;50.178;7.570;2022-07-06T00:53:34;97820.94;;;13.33;67.51
47330;BME280;33060;50.178;7.570;2022-07-06T00:56:01;97824.69;;;13.16;69.05
47330;BME280;33060;50.178;7.570;2022-07-06T00:58:28;97822.91;;;13.04;68.60
47330;BME280;33060;50.178;7.570;2022-07-06T01:00:54;97820.25;;;13.04;69.55
47330;BME280;33060;50.178;7.570;2022-07-06T01:03:21;97815.13;;;12.88;69.60
47330;BME280;33060;50.178;7.570;2022-07-06T01:05:50;97814.38;;;12.86;69.32
47330;BME280;33060;50.178;7.570;2022-07-06T01:08:16;97816.94;;;12.87;69.50
47330;BME280;33060;50.178;7.570;2022-07-06T01:10:43;97821.03;;;12.79;69.77
47330;BME280;33060;50.178;7.570;2022-07-06T01:13:10;97826.19;;;12.67;70.41
47330;BME280;33060;50.178;7.570;2022-07-06T01:15:37;97826.59;;;12.61;69.85
47330;BME280;33060;50.178;7.570;2022-07-06T01:18:04;97818.78;;;12.60;70.64
47330;BME280;33060;50.178;7.570;2022-07-06T01:20:31;97819.16;;;12.54;69.70
47330;BME280;33060;50.178;7.570;2022-07-06T01:22:59;97820.63;;;12.45;70.80
47330;BME280;33060;50.178;7.570;2022-07-06T01:25:25;97819.91;;;12.29;70.88
47330;BME280;33060;50.178;7.570;2022-07-06T01:27:52;97814.91;;;12.24;71.08
47330;BME280;33060;50.178;7.570;2022-07-06T01:30:19;97817.56;;;12.24;70.82
47330;BME280;33060;50.178;7.570;2022-07-06T01:32:46;97822.31;;;12.19;70.97
47330;BME280;33060;50.178;7.570;2022-07-06T01:35:15;97823.16;;;12.05;71.61
47330;BME280;33060;50.178;7.570;2022-07-06T01:37:42;97817.34;;;12.00;71.29
47330;BME280;33060;50.178;7.570;2022-07-06T01:40:11;97818.69;;;11.93;72.08
47330;BME280;33060;50.178;7.570;2022-07-06T01:42:38;97812.81;;;11.88;71.79
47330;BME280;33060;50.178;7.570;2022-07-06T01:45:06;97808.78;;;11.82;72.31
47330;BME280;33060;50.178;7.570;2022-07-06T01:47:34;97815.34;;;12.04;71.83
47330;BME280;33060;50.178;7.570;2022-07-06T01:50:05;97810.13;;;12.16;72.09
47330;BME280;33060;50.178;7.570;2022-07-06T01:52:39;97804.53;;;12.21;72.01
47330;BME280;33060;50.178;7.570;2022-07-06T01:55:06;97805.69;;;12.17;71.05
47330;BME280;33060;50.178;7.570;2022-07-06T01:57:35;97808.06;;;12.07;70.93
47330;BME280;33060;50.178;7.570;2022-07-06T02:00:05;97815.06;;;12.08;71.75
47330;BME280;33060;50.178;7.570;2022-07-06T02:02:38;97813.66;;;12.03;71.81
47330;BME280;33060;50.178;7.570;2022-07-06T02:05:05;97819.72;;;11.91;72.88
47330;BME280;33060;50.178;7.570;2022-07-06T02:07:32;97815.47;;;11.88;72.84
47330;BME280;33060;50.178;7.570;2022-07-06T02:10:00;97822.75;;;11.84;71.76
47330;BME280;33060;50.178;7.570;2022-07-06T02:12:27;97816.00;;;11.79;73.00
47330;BME280;33060;50.178;7.570;2022-07-06T02:14:53;97816.13;;;11.77;73.05
47330;BME280;33060;50.178;7.570;2022-07-06T02:17:20;97821.78;;;11.71;72.61
47330;BME280;33060;50.178;7.570;2022-07-06T02:19:49;97822.53;;;11.87;72.23
47330;BME280;33060;50.178;7.570;2022-07-06T02:22:15;97821.38;;;12.06;71.42
47330;BME280;33060;50.178;7.570;2022-07-06T02:24:42;97814.88;;;11.97;72.01
47330;BME280;33060;50.178;7.570;2022-07-06T02:27:09;97820.00;;;11.86;72.90
47330;BME280;33060;50.178;7.570;2022-07-06T02:29:36;97822.53;;;11.87;72.00
47330;BME280;33060;50.178;7.570;2022-07-06T02:32:03;97819.06;;;11.87;72.08
47330;BME280;33060;50.178;7.570;2022-07-06T02:34:30;97816.00;;;11.79;72.36
47330;BME280;33060;50.178;7.570;2022-07-06T02:36:57;97825.09;;;11.60;72.97
47330;BME280;33060;50.178;7.570;2022-07-06T02:39:24;97819.44;;;11.67;73.52
47330;BME280;33060;50.178;7.570;2022-07-06T02:41:51;97822.25;;;11.64;72.68
47330;BME280;33060;50.178;7.570;2022-07-06T02:44:17;97821.88;;;11.70;73.25
47330;BME280;33060;50.178;7.570;2022-07-06T02:46:44;97821.59;;;11.60;72.91
47330;BME280;33060;50.178;7.570;2022-07-06T02:49:11;97819.91;;;11.59;72.26
47330;BME280;33060;50.178;7.570;2022-07-06T02:51:38;97818.00;;;11.61;72.29
47330;BME280;33060;50.178;7.570;2022-07-06T02:54:04;97814.50;;;11.60;72.18
47330;BME280;33060;50.178;7.570;2022-07-06T02:56:31;97832.47;;;11.55;72.52
47330;BME280;33060;50.178;7.570;2022-07-06T02:58:58;97820.28;;;11.53;71.53
47330;BME280;33060;50.178;7.570;2022-07-06T03:01:25;97818.94;;;11.46;71.95
47330;BME280;33060;50.178;7.570;2022-07-06T03:03:52;97818.50;;;11.39;72.08
47330;BME280;33060;50.178;7.570;2022-07-06T03:06:19;97829.63;;;11.30;72.35
47330;BME280;33060;50.178;7.570;2022-07-06T03:08:46;97829.59;;;11.16;72.50
47330;BME280;33060;50.178;7.570;2022-07-06T03:11:13;97825.91;;;11.18;72.43
47330;BME280;33060;50.178;7.570;2022-07-06T03:13:40;97824.78;;;11.08;72.62
47330;BME280;33060;50.178;7.570;2022-07-06T03:16:08;97825.41;;;10.97;73.18
47330;BME280;33060;50.178;7.570;2022-07-06T03:18:34;97824.88;;;10.76;73.42
47330;BME280;33060;50.178;7.570;2022-07-06T03:21:01;97845.22;;;10.74;73.99
47330;BME280;33060;50.178;7.570;2022-07-06T03:23:30;97839.94;;;10.74;72.90
47330;BME280;33060;50.178;7.570;2022-07-06T03:25:57;97848.75;;;10.59;74.09
47330;BME280;33060;50.178;7.570;2022-07-06T03:28:24;97849.38;;;10.48;74.25
47330;BME280;33060;50.178;7.570;2022-07-06T03:30:52;97848.94;;;10.40;74.26
47330;BME280;33060;50.178;7.570;2022-07-06T03:33:19;97854.75;;;10.31;74.24
47330;BME280;33060;50.178;7.570;2022-07-06T03:35:46;97856.88;;;10.25;74.43
47330;BME280;33060;50.178;7.570;2022-07-06T03:38:13;97854.72;;;10.15;74.26
47330;BME280;33060;50.178;7.570;2022-07-06T03:40:41;97845.53;;;10.07;73.33
47330;BME280;33060;50.178;7.570;2022-07-06T03:43:08;97849.09;;;10.06;73.59
47330;BME280;33060;50.178;7.570;2022-07-06T03:45:36;97853.44;;;10.07;73.68
47330;BME280;33060;50.178;7.570;2022-07-06T03:48:04;97847.31;;;10.06;73.27
47330;BME280;33060;50.178;7.570;2022-07-06T03:50:34;97846.72;;;10.01;73.03
47330;BME280;33060;50.178;7.570;2022-07-06T03:53:01;97846.38;;;9.91;73.44
47330;BME280;33060;50.178;7.570;2022-07-06T03:55:27;97842.22;;;9.87;73.88
47330;BME280;33060;50.178;7.570;2022-07-06T03:57:59;97849.97;;;9.90;74.52
47330;BME280;33060;50.178;7.570;2022-07-06T04:00:33;97866.44;;;9.94;74.18
47330;BME280;33060;50.178;7.570;2022-07-06T04:03:04;97860.06;;;9.98;74.53
47330;BME280;33060;50.178;7.570;2022-07-06T04:05:36;97866.44;;;9.94;75.28
47330;BME280;33060;50.178;7.570;2022-07-06T04:08:03;97873.31;;;9.97;74.42
47330;BME280;33060;50.178;7.570;2022-07-06T04:10:36;97873.94;;;10.02;74.63
47330;BME280;33060;50.178;7.570;2022-07-06T04:13:03;97870.19;;;10.06;74.29
47330;BME280;33060;50.178;7.570;2022-07-06T04:15:30;97867.47;;;10.07;73.92
47330;BME280;33060;50.178;7.570;2022-07-06T04:17:57;97877.84;;;9.95;74.52
47330;BME280;33060;50.178;7.570;2022-07-06T04:20:29;97866.13;;;10.00;74.46
47330;BME280;33060;50.178;7.570;2022-07-06T04:22:56;97874.53;;;10.07;74.56
47330;BME280;33060;50.178;7.570;2022-07-06T04:25:24;97870.47;;;10.17;74.51
47330;BME280;33060;50.178;7.570;2022-07-06T04:27:53;97870.84;;;10.27;74.11
47330;BME280;33060;50.178;7.570;2022-07-06T04:30:21;97874.84;;;10.34;74.34
47330;BME280;33060;50.178;7.570;2022-07-06T04:32:49;97878.75;;;10.42;74.02
47330;BME280;33060;50.178;7.570;2022-07-06T04:35:16;97873.69;;;10.99;72.21
47330;BME280;33060;50.178;7.570;2022-07-06T04:37:45;97877.13;;;12.03;68.18
47330;BME280;33060;50.178;7.570;2022-07-06T04:40:17;97868.28;;;13.88;61.51
47330;BME280;33060;50.178;7.570;2022-07-06T04:42:47;97871.47;;;14.79;58.54
47330;BME280;33060;50.178;7.570;2022-07-06T04:45:14;97879.34;;;13.31;62.91
47330;BME280;33060;50.178;7.570;2022-07-06T04:47:41;97887.41;;;12.49;67.02
47330;BME280;33060;50.178;7.570;2022-07-06T04:50:09;97881.88;;;12.25;67.14
47330;BME280;33060;50.178;7.570;2022-07-06T04:52:36;97879.06;;;12.13;67.89
47330;BME280;33060;50.178;7.570;2022-07-06T04:55:04;97875.34;;;12.30;68.25
47330;BME280;33060;50.178;7.570;2022-07-06T04:57:33;97867.16;;;12.35;67.63
47330;BME280;33060;50.178;7.570;2022-07-06T05:00:03;97874.84;;;12.11;68.53
47330;BME280;33060;50.178;7.570;2022-07-06T05:02:30;97878.53;;;12.08;69.04
47330;BME280;33060;50.178;7.570;2022-07-06T05:04:58;97881.81;;;12.12;68.60
47330;BME280;33060;50.178;7.570;2022-07-06T05:07:25;97883.31;;;12.16;68.73
47330;BME280;33060;50.178;7.570;2022-07-06T05:09:55;97888.59;;;12.30;67.98
47330;BME280;33060;50.178;7.570;2022-07-06T05:12:22;97888.44;;;12.60;67.31
47330;BME280;33060;50.178;7.570;2022-07-06T05:14:50;97895.31;;;12.90;66.63
47330;BME280;33060;50.178;7.570;2022-07-06T05:17:18;97890.97;;;13.28;65.62
47330;BME280;33060;50.178;7.570;2022-07-06T05:19:47;97880.03;;;15.53;59.38
47330;BME280;33060;50.178;7.570;2022-07-06T05:22:14;97884.56;;;16.42;55.47
47330;BME280;33060;50.178;7.570;2022-07-06T05:24:41;97869.56;;;18.50;50.37
47330;BME280;33060;50.178;7.570;2022-07-06T05:27:07;97870.16;;;19.98;45.96
47330;BME280;33060;50.178;7.570;2022-07-06T05:29:34;97875.66;;;19.87;45.82
47330;BME280;33060;50.178;7.570;2022-07-06T05:32:01;97874.81;;;20.24;44.87
47330;BME280;33060;50.178;7.570;2022-07-06T05:34:28;97874.75;;;19.40;46.56
47330;BME280;33060;50.178;7.570;2022-07-06T05:36:55;97868.97;;;20.66;44.06
47330;BME280;33060;50.178;7.570;2022-07-06T05:39:22;97869.00;;;21.19;42.09
47330;BME280;33060;50.178;7.570;2022-07-06T05:41:50;97868.28;;;22.22;40.24
47330;BME280;33060;50.178;7.570;2022-07-06T05:44:18;97857.78;;;22.88;38.54
47330;BME280;33060;50.178;7.570;2022-07-06T05:46:45;97864.41;;;22.59;39.93
47330;BME280;33060;50.178;7.570;2022-07-06T05:49:13;97862.38;;;23.03;38.48
47330;BME280;33060;50.178;7.570;2022-07-06T05:51:58;97860.00;;;23.90;37.52
47330;BME280;33060;50.178;7.570;2022-07-06T05:54:26;97867.25;;;20.47;43.61
47330;BME280;33060;50.178;7.570;2022-07-06T05:56:53;97872.47;;;19.74;46.18
47330;BME280;33060;50.178;7.570;2022-07-06T05:59:20;97878.53;;;18.79;48.08
47330;BME280;33060;50.178;7.570;2022-07-06T06:01:47;97880.09;;;18.01;50.13
47330;BME280;33060;50.178;7.570;2022-07-06T06:04:18;97876.28;;;18.75;49.05
47330;BME280;33060;50.178;7.570;2022-07-06T06:06:45;97878.38;;;17.49;51.86
47330;BME280;33060;50.178;7.570;2022-07-06T06:09:12;97876.44;;;18.02;51.39
47330;BME280;33060;50.178;7.570;2022-07-06T06:11:40;97867.50;;;18.53;50.64
47330;BME280;33060;50.178;7.570;2022-07-06T06:14:07;97869.03;;;18.56;49.32
47330;BME280;33060;50.178;7.570;2022-07-06T06:16:35;97872.75;;;17.94;50.49
47330;BME280;33060;50.178;7.570;2022-07-06T06:19:02;97870.19;;;18.63;49.54
47330;BME280;33060;50.178;7.570;2022-07-06T06:21:28;97871.88;;;17.42;51.56
47330;BME280;33060;50.178;7.570;2022-07-06T06:23:55;97880.75;;;17.10;52.45
47330;BME280;33060;50.178;7.570;2022-07-06T06:26:21;97876.25;;;16.67;53.17
47330;BME280;33060;50.178;7.570;2022-07-06T06:28:48;97873.84;;;15.99;54.94
47330;BME280;33060;50.178;7.570;2022-07-06T06:31:16;97890.13;;;15.37;56.55
47330;BME280;33060;50.178;7.570;2022-07-06T06:33:42;97897.34;;;15.12;57.06
47330;BME280;33060;50.178;7.570;2022-07-06T06:36:09;97897.91;;;15.05;57.24
47330;BME280;33060;50.178;7.570;2022-07-06T06:38:36;97904.34;;;14.89;58.06
47330;BME280;33060;50.178;7.570;2022-07-06T06:41:02;97901.00;;;14.75;57.98
47330;BME280;33060;50.178;7.570;2022-07-06T06:43:29;97906.38;;;14.62;56.54
47330;BME280;33060;50.178;7.570;2022-07-06T06:46:10;97919.25;;;14.55;56.24
47330;BME280;33060;50.178;7.570;2022-07-06T06:48:37;97918.63;;;14.99;54.74
47330;BME280;33060;50.178;7.570;2022-07-06T06:51:04;97900.78;;;16.05;51.79
47330;BME280;33060;50.178;7.570;2022-07-06T06:53:31;97915.53;;;15.76;52.92
47330;BME280;33060;50.178;7.570;2022-07-06T06:56:05;97917.50;;;14.91;55.21
47330;BME280;33060;50.178;7.570;2022-07-06T06:58:32;97903.50;;;14.89;55.50
47330;BME280;33060;50.178;7.570;2022-07-06T07:01:18;97912.25;;;14.78;55.06
47330;BME280;33060;50.178;7.570;2022-07-06T07:03:45;97907.69;;;16.30;51.79
47330;BME280;33060;50.178;7.570;2022-07-06T07:06:12;97912.75;;;16.45;51.38
47330;BME280;33060;50.178;7.570;2022-07-06T07:08:38;97918.94;;;16.45;52.80
47330;BME280;33060;50.178;7.570;2022-07-06T07:11:05;97924.53;;;16.08;53.70
47330;BME280;33060;50.178;7.570;2022-07-06T07:13:32;97934.06;;;16.22;54.95
47330;BME280;33060;50.178;7.570;2022-07-06T07:15:58;97932.50;;;16.53;54.16
47330;BME280;33060;50.178;7.570;2022-07-06T07:18:25;97928.47;;;16.48;53.14
47330;BME280;33060;50.178;7.570;2022-07-06T07:20:53;97934.31;;;16.19;54.14
47330;BME280;33060;50.178;7.570;2022-07-06T07:23:19;97927.41;;;16.39;53.87
47330;BME280;33060;50.178;7.570;2022-07-06T07:25:46;97921.84;;;16.42;53.48
47330;BME280;33060;50.178;7.570;2022-07-06T07:28:12;97928.00;;;15.98;54.70
47330;BME280;33060;50.178;7.570;2022-07-06T07:30:39;97925.78;;;15.69;54.54
47330;BME280;33060;50.178;7.570;2022-07-06T07:33:06;97925.91;;;15.68;54.37
47330;BME280;33060;50.178;7.570;2022-07-06T07:35:33;97924.41;;;16.10;54.21
47330;BME280;33060;50.178;7.570;2022-07-06T07:38:00;97906.44;;;16.68;52.95
47330;BME280;33060;50.178;7.570;2022-07-06T07:40:26;97911.69;;;16.36;51.67
47330;BME280;33060;50.178;7.570;2022-07-06T07:42:53;97914.56;;;16.33;53.28
47330;BME280;33060;50.178;7.570;2022-07-06T07:45:20;97916.03;;;16.37;53.87
47330;BME280;33060;50.178;7.570;2022-07-06T07:47:47;97910.88;;;16.90;52.99
47330;BME280;33060;50.178;7.570;2022-07-06T07:50:13;97908.59;;;16.85;51.03
47330;BME280;33060;50.178;7.570;2022-07-06T07:52:42;97910.16;;;17.20;50.53
47330;BME280;33060;50.178;7.570;2022-07-06T07:55:09;97916.44;;;17.93;48.89
47330;BME280;33060;50.178;7.570;2022-07-06T07:57:56;97902.06;;;18.85;46.17
47330;BME280;33060;50.178;7.570;2022-07-06T08:00:23;97914.34;;;17.55;45.77
47330;BME280;33060;50.178;7.570;2022-07-06T08:02:54;97922.06;;;16.73;47.06
47330;BME280;33060;50.178;7.570;2022-07-06T08:05:21;97912.84;;;17.73;44.15
47330;BME280;33060;50.178;7.570;2022-07-06T08:07:48;97912.00;;;18.33;44.61
47330;BME280;33060;50.178;7.570;2022-07-06T08:10:14;97912.16;;;18.42;44.04
47330;BME280;33060;50.178;7.570;2022-07-06T08:12:41;97913.06;;;18.52;43.28
47330;BME280;33060;50.178;7.570;2022-07-06T08:15:11;97907.41;;;18.85;42.56
47330;BME280;33060;50.178;7.570;2022-07-06T08:17:38;97910.22;;;18.44;44.48
47330;BME280;33060;50.178;7.570;2022-07-06T08:20:06;97904.41;;;18.39;44.05
47330;BME280;33060;50.178;7.570;2022-07-06T08:22:36;97910.63;;;18.49;44.60
47330;BME280;33060;50.178;7.570;2022-07-06T08:25:04;97899.53;;;19.13;43.45
47330;BME280;33060;50.178;7.570;2022-07-06T08:27:32;97904.69;;;18.76;45.36
47330;BME280;33060;50.178;7.570;2022-07-06T08:29:59;97912.88;;;18.13;45.12
47330;BME280;33060;50.178;7.570;2022-07-06T08:32:27;97907.84;;;17.68;44.97
47330;BME280;33060;50.178;7.570;2022-07-06T08:35:13;97902.63;;;19.18;41.96
47330;BME280;33060;50.178;7.570;2022-07-06T08:37:40;97906.03;;;19.30;41.84
47330;BME280;33060;50.178;7.570;2022-07-06T08:40:07;97908.84;;;19.67;41.96
47330;BME280;33060;50.178;7.570;2022-07-06T08:42:35;97902.31;;;18.73;43.82
47330;BME280;33060;50.178;7.570;2022-07-06T08:45:05;97915.34;;;18.26;43.90
47330;BME280;33060;50.178;7.570;2022-07-06T08:47:36;97897.41;;;18.97;42.21
47330;BME280;33060;50.178;7.570;2022-07-06T08:50:03;97901.97;;;18.16;43.96
47330;BME280;33060;50.178;7.570;2022-07-06T08:52:32;97921.78;;;17.51;45.06
47330;BME280;33060;50.178;7.570;2022-07-06T08:54:59;97922.47;;;17.00;46.62
47330;BME280;33060;50.178;7.570;2022-07-06T08:57:27;97921.78;;;17.72;44.21
47330;BME280;33060;50.178;7.570;2022-07-06T08:59:54;97918.22;;;18.93;42.29
47330;BME280;33060;50.178;7.570;2022-07-06T09:02:24;97900.66;;;19.39;42.30
47330;BME280;33060;50.178;7.570;2022-07-06T09:04:54;97911.03;;;18.84;43.39
47330;BME280;33060;50.178;7.570;2022-07-06T09:07:22;97911.84;;;18.66;43.52
47330;BME280;33060;50.178;7.570;2022-07-06T09:10:09;97916.44;;;18.23;43.10
47330;BME280;33060;50.178;7.570;2022-07-06T09:12:36;97915.56;;;18.44;43.91
47330;BME280;33060;50.178;7.570;2022-07-06T09:15:03;97914.50;;;18.25;45.28
47330;BME280;33060;50.178;7.570;2022-07-06T09:17:30;97905.50;;;18.26;45.66
47330;BME280;33060;50.178;7.570;2022-07-06T09:19:57;97910.59;;;17.99;45.26
47330;BME280;33060;50.178;7.570;2022-07-06T09:22:27;97896.25;;;18.40;44.02
47330;BME280;33060;50.178;7.570;2022-07-06T09:25:01;97893.63;;;19.38;42.60
47330;BME280;33060;50.178;7.570;2022-07-06T09:27:29;97890.03;;;20.33;41.38
47330;BME280;33060;50.178;7.570;2022-07-06T09:29:59;97886.47;;;20.70;39.39
47330;BME280;33060;50.178;7.570;2022-07-06T09:32:27;97895.09;;;20.64;38.49
47330;BME280;33060;50.178;7.570;2022-07-06T09:34:54;97903.34;;;19.30;40.76
47330;BME280;33060;50.178;7.570;2022-07-06T09:37:22;97908.41;;;19.81;40.03
47330;BME280;33060;50.178;7.570;2022-07-06T09:39:52;97902.59;;;19.86;39.10
47330;BME280;33060;50.178;7.570;2022-07-06T09:42:24;97897.97;;;20.80;37.88
47330;BME280;33060;50.178;7.570;2022-07-06T09:44:52;97904.09;;;19.98;39.43
47330;BME280;33060;50.178;7.570;2022-07-06T09:47:19;97909.91;;;19.93;39.43
47330;BME280;33060;50.178;7.570;2022-07-06T09:49:46;97910.56;;;20.05;38.54
47330;BME280;33060;50.178;7.570;2022-07-06T09:52:16;97906.47;;;20.48;36.42
47330;BME280;33060;50.178;7.570;2022-07-06T09:54:48;97916.13;;;21.31;36.71
47330;BME280;33060;50.178;7.570;2022-07-06T09:57:15;97902.63;;;22.37;35.32
47330;BME280;33060;50.178;7.570;2022-07-06T09:59:41;97902.00;;;21.91;36.95
47330;BME280;33060;50.178;7.570;2022-07-06T10:02:08;97899.09;;;21.23;36.59
47330;BME280;33060;50.178;7.570;2022-07-06T10:04:35;97900.69;;;20.43;38.35
47330;BME280;33060;50.178;7.570;2022-07-06T10:07:03;97904.28;;;19.87;39.58
47330;BME280;33060;50.178;7.570;2022-07-06T10:09:30;97912.47;;;19.75;40.82
47330;BME280;33060;50.178;7.570;2022-07-06T10:12:01;97907.25;;;19.45;40.89
47330;BME280;33060;50.178;7.570;2022-07-06T10:14:30;97905.59;;;19.73;41.66
47330;BME280;33060;50.178;7.570;2022-07-06T10:17:00;97908.69;;;19.39;40.79
47330;BME280;33060;50.178;7.570;2022-07-06T10:19:29;97897.69;;;20.55;39.61
47330;BME280;33060;50.178;7.570;2022-07-06T10:21:59;97904.19;;;20.16;40.66
47330;BME280;33060;50.178;7.570;2022-07-06T10:24:27;97906.63;;;20.74;39.25
47330;BME280;33060;50.178;7.570;2022-07-06T10:26:54;97903.50;;;21.67;36.76
47330;BME280;33060;50.178;7.570;2022-07-06T10:29:21;97904.03;;;20.82;35.55
47330;BME280;33060;50.178;7.570;2022-07-06T10:31:48;97904.69;;;20.29;37.36
47330;BME280;33060;50.178;7.570;2022-07-06T10:34:17;97916.22;;;20.02;39.11
47330;BME280;33060;50.178;7.570;2022-07-06T10:36:49;97908.97;;;19.56;39.46
47330;BME280;33060;50.178;7.570;2022-07-06T10:39:34;97910.38;;;19.50;40.50
47330;BME280;33060;50.178;7.570;2022-07-06T10:42:42;97926.84;;;19.36;41.09
47330;BME280;33060;50.178;7.570;2022-07-06T10:45:11;97923.91;;;19.48;40.86
47330;BME280;33060;50.178;7.570;2022-07-06T10:47:40;97913.31;;;19.28;40.64
47330;BME280;33060;50.178;7.570;2022-07-06T10:50:08;97913.44;;;18.87;41.62
47330;BME280;33060;50.178;7.570;2022-07-06T10:52:52;97907.88;;;20.79;39.44
47330;BME280;33060;50.178;7.570;2022-07-06T10:55:35;97898.47;;;22.08;38.32
47330;BME280;33060;50.178;7.570;2022-07-06T10:58:03;97897.88;;;22.05;38.34
47330;BME280;33060;50.178;7.570;2022-07-06T11:00:49;97901.03;;;21.48;38.30
47330;BME280;33060;50.178;7.570;2022-07-06T11:08:43;97907.84;;;20.24;39.14
47330;BME280;33060;50.178;7.570;2022-07-06T11:11:12;97916.94;;;19.94;40.12
47330;BME280;33060;50.178;7.570;2022-07-06T11:13:47;97914.06;;;19.20;41.97
47330;BME280;33060;50.178;7.570;2022-07-06T11:16:16;97917.28;;;19.62;41.67
47330;BME280;33060;50.178;7.570;2022-07-06T11:18:48;97911.75;;;19.93;40.40
47330;BME280;33060;50.178;7.570;2022-07-06T11:21:20;97914.16;;;20.33;39.88
47330;BME280;33060;50.178;7.570;2022-07-06T11:23:48;97901.56;;;21.34;38.77
47330;BME280;33060;50.178;7.570;2022-07-06T11:26:16;97901.59;;;21.06;39.38
47330;BME280;33060;50.178;7.570;2022-07-06T11:28:46;97918.66;;;19.86;36.86
47330;BME280;33060;50.178;7.570;2022-07-06T11:31:14;97914.81;;;20.72;37.52
47330;BME280;33060;50.178;7.570;2022-07-06T11:33:44;97917.03;;;20.59;38.18
47330;BME280;33060;50.178;7.570;2022-07-06T11:36:13;97916.75;;;20.05;39.89
47330;BME280;33060;50.178;7.570;2022-07-06T11:38:40;97920.25;;;20.25;39.60
47330;BME280;33060;50.178;7.570;2022-07-06T11:41:07;97921.13;;;20.07;39.76
47330;BME280;33060;50.178;7.570;2022-07-06T11:43:34;97915.31;;;20.21;40.20
47330;BME280;33060;50.178;7.570;2022-07-06T11:46:01;97908.88;;;20.41;39.31
47330;BME280;33060;50.178;7.570;2022-07-06T11:48:28;97911.41;;;20.05;39.41
47330;BME280;33060;50.178;7.570;2022-07-06T11:51:01;97907.25;;;19.84;38.73
47330;BME280;33060;50.178;7.570;2022-07-06T11:53:29;97908.84;;;19.57;40.13
47330;BME280;33060;50.178;7.570;2022-07-06T11:56:02;97905.72;;;19.81;41.13
47330;BME280;33060;50.178;7.570;2022-07-06T11:58:30;97889.41;;;20.94;40.70
47330;BME280;33060;50.178;7.570;2022-07-06T12:01:05;97884.50;;;20.89;39.69
47330;BME280;33060;50.178;7.570;2022-07-06T12:03:32;97889.56;;;20.47;39.28
47330;BME280;33060;50.178;7.570;2022-07-06T12:05:59;97903.31;;;20.25;39.27
47330;BME280;33060;50.178;7.570;2022-07-06T12:08:26;97903.88;;;19.82;39.07
47330;BME280;33060;50.178;7.570;2022-07-06T12:10:53;97899.41;;;20.10;37.80
47330;BME280;33060;50.178;7.570;2022-07-06T12:13:20;97885.09;;;21.01;38.32
47330;BME280;33060;50.178;7.570;2022-07-06T12:15:48;97897.19;;;21.77;36.31
47330;BME280;33060;50.178;7.570;2022-07-06T12:18:14;97889.81;;;22.31;35.71
47330;BME280;33060;50.178;7.570;2022-07-06T12:20:41;97899.91;;;22.28;36.22
47330;BME280;33060;50.178;7.570;2022-07-06T12:23:08;97886.50;;;21.85;36.64
47330;BME280;33060;50.178;7.570;2022-07-06T12:25:36;97896.69;;;21.02;36.33
47330;BME280;33060;50.178;7.570;2022-07-06T12:28:03;97889.78;;;21.53;36.23
47330;BME280;33060;50.178;7.570;2022-07-06T12:30:30;97889.72;;;21.44;36.48
47330;BME280;33060;50.178;7.570;2022-07-06T12:33:16;97886.47;;;22.02;36.48
47330;BME280;33060;50.178;7.570;2022-07-06T12:35:44;97880.91;;;21.52;36.55
47330;BME280;33060;50.178;7.570;2022-07-06T12:38:11;97885.00;;;21.38;36.66
47330;BME280;33060;50.178;7.570;2022-07-06T12:40:38;97884.50;;;21.61;37.02
47330;BME280;33060;50.178;7.570;2022-07-06T12:43:05;97876.59;;;21.85;35.98
47330;BME280;33060;50.178;7.570;2022-07-06T12:45:31;97878.34;;;21.94;35.61
47330;BME280;33060;50.178;7.570;2022-07-06T12:48:03;97881.38;;;21.48;36.77
47330;BME280;33060;50.178;7.570;2022-07-06T12:50:38;97869.41;;;21.06;36.56
47330;BME280;33060;50.178;7.570;2022-07-06T12:53:06;97878.22;;;20.99;37.32
47330;BME280;33060;50.178;7.570;2022-07-06T12:56:08;97885.88;;;20.48;37.30
47330;BME280;33060;50.178;7.570;2022-07-06T12:58:34;97893.75;;;20.13;38.06
47330;BME280;33060;50.178;7.570;2022-07-06T13:01:02;97888.03;;;20.35;38.99
47330;BME280;33060;50.178;7.570;2022-07-06T13:03:39;97883.38;;;20.00;37.81
47330;BME280;33060;50.178;7.570;2022-07-06T13:06:07;97883.94;;;20.03;39.37
47330;BME280;33060;50.178;7.570;2022-07-06T13:08:33;97884.13;;;19.92;39.92
47330;BME280;33060;50.178;7.570;2022-07-06T13:11:00;97885.59;;;19.67;40.42
47330;BME280;33060;50.178;7.570;2022-07-06T13:13:27;97892.44;;;19.80;40.32